createdAt,value
2022-12-17T00:01:06.989Z,101533.88
2022-12-17T00:03:52.359Z,101540.47
2022-12-17T00:06:38.179Z,101535.53
2022-12-17T00:09:23.473Z,101539.91
2022-12-17T00:12:11.474Z,101541.41
2022-12-17T00:14:56.841Z,101543.75
2022-12-17T00:17:43.446Z,101541.94
2022-12-17T00:20:29.007Z,101543.56
2022-12-17T00:23:18.461Z,101544.75
2022-12-17T00:26:05.649Z,101550.94
2022-12-17T00:28:51.193Z,101557.88
2022-12-17T00:31:37.313Z,101562.66
2022-12-17T00:34:24.119Z,101565.97
2022-12-17T00:37:10.120Z,101573.31
2022-12-17T00:39:59.259Z,101570.53
2022-12-17T00:42:45.399Z,101575.03
2022-12-17T00:45:31.338Z,101574.38
2022-12-17T00:48:16.460Z,101569.72
2022-12-17T00:51:03.117Z,101568.66
2022-12-17T00:53:48.235Z,101574.28
2022-12-17T00:56:33.625Z,101568.97
2022-12-17T00:59:18.814Z,101577.16
2022-12-17T01:02:04.371Z,101571.38
2022-12-17T01:04:50.100Z,101582.38
2022-12-17T01:07:36.655Z,101585.91
2022-12-17T01:10:22.336Z,101582.19
2022-12-17T01:13:08.641Z,101586.22
2022-12-17T01:15:53.883Z,101588.25
2022-12-17T01:18:42.120Z,101598.78
2022-12-17T01:21:27.244Z,101608.81
2022-12-17T01:24:13.792Z,101608.72
2022-12-17T01:26:59.029Z,101614.97
2022-12-17T01:29:44.278Z,101622.44
2022-12-17T01:32:29.804Z,101624.66
2022-12-17T01:35:15.145Z,101629.88
2022-12-17T01:38:01.433Z,101636.19
2022-12-17T01:40:50.361Z,101635.53
2022-12-17T01:43:50.479Z,101636.91
2022-12-17T01:46:36.086Z,101644.50
2022-12-17T01:49:21.944Z,101640.78
2022-12-17T01:52:10.102Z,101641.38
2022-12-17T01:54:55.936Z,101647.59
2022-12-17T01:57:43.907Z,101652.91
2022-12-17T02:00:28.223Z,101647.88
2022-12-17T02:03:13.828Z,101645.22
2022-12-17T02:06:03.325Z,101646.00
2022-12-17T02:08:57.255Z,101652.91
2022-12-17T02:11:47.617Z,101649.59
2022-12-17T02:14:41.202Z,101645.22
2022-12-17T02:17:33.480Z,101650.22
2022-12-17T02:20:31.228Z,101653.00
2022-12-17T02:23:30.886Z,101654.28
2022-12-17T02:26:21.181Z,101654.28
2022-12-17T02:29:10.396Z,101662.06
2022-12-17T02:32:03.823Z,101662.81
2022-12-17T02:34:49.068Z,101661.84
2022-12-17T02:37:34.563Z,101659.31
2022-12-17T02:40:19.827Z,101669.31
2022-12-17T02:43:07.695Z,101668.13
2022-12-17T02:45:54.783Z,101658.31
2022-12-17T02:48:40.648Z,101672.22
2022-12-17T02:51:25.737Z,101665.13
2022-12-17T02:54:12.336Z,101664.56
2022-12-17T02:56:57.435Z,101668.41
2022-12-17T02:59:43.192Z,101672.00
2022-12-17T03:02:30.238Z,101677.94
2022-12-17T03:05:43.483Z,101680.50
2022-12-17T03:08:21.057Z,101680.19
2022-12-17T03:11:06.268Z,101680.09
2022-12-17T03:13:51.696Z,101689.31
2022-12-17T03:16:38.287Z,101678.56
2022-12-17T03:19:25.226Z,101679.34
2022-12-17T03:22:10.446Z,101686.25
2022-12-17T03:24:56.156Z,101684.44
2022-12-17T03:27:41.241Z,101679.72
2022-12-17T03:30:27.532Z,101689.97
2022-12-17T03:33:13.901Z,101694.25
2022-12-17T03:36:00.455Z,101700.84
2022-12-17T03:38:47.269Z,101695.34
2022-12-17T03:41:32.323Z,101694.91
2022-12-17T03:44:17.734Z,101693.59
2022-12-17T03:47:02.958Z,101698.25
2022-12-17T03:49:49.703Z,101691.34
2022-12-17T03:52:36.173Z,101691.59
2022-12-17T03:55:21.867Z,101694.78
2022-12-17T03:58:07.090Z,101692.13
2022-12-17T04:00:52.588Z,101694.47
2022-12-17T04:03:38.375Z,101693.19
2022-12-17T04:06:24.119Z,101694.91
2022-12-17T04:09:10.600Z,101699.47
2022-12-17T04:11:55.746Z,101699.78
2022-12-17T04:14:41.030Z,101699.94
2022-12-17T04:17:26.106Z,101701.84
2022-12-17T04:20:11.379Z,101697.06
2022-12-17T04:22:56.996Z,101700.38
2022-12-17T04:25:43.440Z,101706.09
2022-12-17T04:28:28.834Z,101708.59
2022-12-17T04:31:14.387Z,101704.16
2022-12-17T04:33:59.637Z,101708.66
2022-12-17T04:36:44.877Z,101715.28
2022-12-17T04:39:30.196Z,101718.69
2022-12-17T04:42:16.875Z,101719.00
2022-12-17T04:45:02.065Z,101718.44
2022-12-17T04:47:47.395Z,101709.88
2022-12-17T04:50:32.802Z,101719.19
2022-12-17T04:53:18.842Z,101710.91
2022-12-17T04:56:04.540Z,101713.38
2022-12-17T04:58:50.197Z,101709.44
2022-12-17T05:01:35.664Z,101714.69
2022-12-17T05:04:20.889Z,101718.09
2022-12-17T05:07:06.123Z,101728.06
2022-12-17T05:09:51.245Z,101728.50
2022-12-17T05:12:37.491Z,101733.81
2022-12-17T05:15:25.408Z,101731.66
2022-12-17T05:18:11.254Z,101728.88
2022-12-17T05:20:56.461Z,101728.78
2022-12-17T05:23:41.904Z,101736.88
2022-12-17T05:26:37.902Z,101736.03
2022-12-17T05:29:23.142Z,101738.91
2022-12-17T05:32:09.872Z,101743.47
2022-12-17T05:34:55.016Z,101742.72
2022-12-17T05:37:42.410Z,101741.59
2022-12-17T05:40:28.921Z,101747.88
2022-12-17T05:43:15.225Z,101762.78
2022-12-17T05:46:01.218Z,101753.44
2022-12-17T05:48:48.778Z,101758.66
2022-12-17T05:51:38.456Z,101766.03
2022-12-17T05:54:24.804Z,101774.28
2022-12-17T05:57:10.003Z,101776.81
2022-12-17T05:59:55.801Z,101777.97
2022-12-17T06:02:41.440Z,101785.66
2022-12-17T06:05:28.675Z,101793.66
2022-12-17T06:08:20.989Z,101798.75
2022-12-17T06:11:07.769Z,101794.28
2022-12-17T06:13:53.263Z,101801.22
2022-12-17T06:16:39.056Z,101792.31
2022-12-17T06:19:24.273Z,101804.66
2022-12-17T06:22:10.756Z,101803.25
2022-12-17T06:24:55.980Z,101811.31
2022-12-17T06:27:41.239Z,101812.03
2022-12-17T06:30:27.400Z,101800.22
2022-12-17T06:33:21.997Z,101808.66
2022-12-17T06:36:07.424Z,101809.97
2022-12-17T06:38:53.943Z,101809.19
2022-12-17T06:41:40.220Z,101814.91
2022-12-17T06:44:27.469Z,101802.38
2022-12-17T06:47:12.850Z,101812.38
2022-12-17T06:50:01.466Z,101808.47
2022-12-17T06:52:47.562Z,101817.75
2022-12-17T06:55:34.154Z,101819.56
2022-12-17T06:58:19.750Z,101823.25
2022-12-17T07:01:05.804Z,101835.69
2022-12-17T07:03:51.392Z,101837.91
2022-12-17T07:06:36.633Z,101844.91
2022-12-17T07:09:22.526Z,101851.00
2022-12-17T07:12:09.429Z,101859.91
2022-12-17T07:14:55.306Z,101861.59
2022-12-17T07:17:42.360Z,101869.38
2022-12-17T07:20:29.042Z,101875.28
2022-12-17T07:23:14.802Z,101876.75
2022-12-17T07:26:08.792Z,101882.09
2022-12-17T07:28:55.673Z,101880.22
2022-12-17T07:31:41.267Z,101885.59
2022-12-17T07:34:26.671Z,101887.19
2022-12-17T07:37:14.943Z,101888.72
2022-12-17T07:40:04.203Z,101896.97
2022-12-17T07:42:51.656Z,101893.75
2022-12-17T07:45:38.405Z,101896.34
2022-12-17T07:48:24.349Z,101910.72
2022-12-17T07:51:10.554Z,101912.34
2022-12-17T07:53:56.198Z,101910.63
2022-12-17T07:56:42.898Z,101913.44
2022-12-17T07:59:28.127Z,101918.25
2022-12-17T08:02:15.122Z,101921.94
2022-12-17T08:05:00.664Z,101924.88
2022-12-17T08:07:45.863Z,101921.44
2022-12-17T08:10:27.527Z,101936.38
2022-12-17T08:13:14.360Z,101931.41
2022-12-17T08:16:00.683Z,101942.59
2022-12-17T08:18:47.687Z,101944.69
2022-12-17T08:21:33.071Z,101944.09
2022-12-17T08:24:18.260Z,101944.09
2022-12-17T08:27:03.467Z,101949.63
2022-12-17T08:29:48.641Z,101958.72
2022-12-17T08:32:34.604Z,101968.13
2022-12-17T08:35:21.248Z,101967.47
2022-12-17T08:38:06.544Z,101967.53
2022-12-17T08:40:54.277Z,101969.84
2022-12-17T08:43:36.392Z,101972.41
2022-12-17T08:46:22.253Z,101970.78
2022-12-17T08:49:15.982Z,101972.41
2022-12-17T08:52:02.624Z,101976.38
2022-12-17T08:54:47.911Z,101969.25
2022-12-17T08:57:33.048Z,101976.38
2022-12-17T09:00:18.857Z,101975.78
2022-12-17T09:03:04.196Z,101984.25
2022-12-17T09:05:58.084Z,101982.09
2022-12-17T09:08:44.782Z,101979.53
2022-12-17T09:11:30.121Z,101982.28
2022-12-17T09:14:15.761Z,101981.59
2022-12-17T09:17:01.570Z,101981.16
2022-12-17T09:19:46.831Z,101979.09
2022-12-17T09:22:31.862Z,101990.66
2022-12-17T09:25:18.347Z,101987.91
2022-12-17T09:28:03.822Z,101994.13
2022-12-17T09:30:49.417Z,102000.69
2022-12-17T09:33:35.664Z,101989.88
2022-12-17T09:36:22.187Z,101989.31
2022-12-17T09:39:07.536Z,101987.22
2022-12-17T09:42:03.517Z,101992.63
2022-12-17T09:44:57.762Z,101983.66
2022-12-17T09:47:55.040Z,101989.88
2022-12-17T09:50:41.461Z,101999.16
2022-12-17T09:53:37.254Z,101993.06
2022-12-17T09:56:23.342Z,101993.06
2022-12-17T09:59:09.904Z,102006.59
2022-12-17T10:01:55.508Z,102014.31
2022-12-17T10:04:51.258Z,102015.09
2022-12-17T10:07:41.026Z,102011.41
2022-12-17T10:10:38.285Z,102014.81
2022-12-17T10:13:30.298Z,102013.34
2022-12-17T10:16:17.400Z,102018.94
2022-12-17T10:19:03.821Z,102029.75
2022-12-17T10:21:50.014Z,102023.31
2022-12-17T10:24:35.078Z,102021.91
2022-12-17T10:27:27.857Z,102018.47
2022-12-17T10:30:12.923Z,102014.34
2022-12-17T10:33:00.512Z,102022.97
2022-12-17T10:35:54.438Z,102017.13
2022-12-17T10:38:41.208Z,102023.13
2022-12-17T10:41:39.156Z,102013.19
2022-12-17T10:44:39.032Z,102018.59
2022-12-17T10:47:30.206Z,102022.78
2022-12-17T10:50:18.210Z,102016.63
2022-12-17T10:53:05.090Z,102008.28
2022-12-17T10:55:52.346Z,102016.06
2022-12-17T10:58:39.984Z,102009.72
2022-12-17T11:01:28.586Z,102008.41
2022-12-17T11:04:15.018Z,102009.28
2022-12-17T11:07:04.931Z,102021.34
2022-12-17T11:09:57.668Z,102025.06
2022-12-17T11:12:50.220Z,102020.09
2022-12-17T11:15:43.139Z,102019.63
2022-12-17T11:18:35.629Z,102014.19
2022-12-17T11:21:26.579Z,102023.91
2022-12-17T11:24:22.047Z,102020.66
2022-12-17T11:27:12.151Z,102026.75
2022-12-17T11:29:57.349Z,102019.16
2022-12-17T11:33:04.609Z,102021.53
2022-12-17T11:36:00.830Z,102017.06
2022-12-17T11:39:07.042Z,102022.19
2022-12-17T11:42:09.500Z,102020.88
2022-12-17T11:45:08.439Z,102023.16
2022-12-17T11:48:03.276Z,102024.09
2022-12-17T11:50:56.767Z,102022.13
2022-12-17T11:54:05.369Z,102020.59
2022-12-17T11:56:58.313Z,102015.06
2022-12-17T12:00:04.380Z,102014.59
2022-12-17T12:03:10.397Z,102032.66
2022-12-17T12:06:05.427Z,102025.69
2022-12-17T12:08:55.889Z,102020.41
2022-12-17T12:11:51.239Z,102025.94
2022-12-17T12:14:48.201Z,102020.06
2022-12-17T12:17:48.595Z,102020.13
2022-12-17T12:20:46.300Z,102012.19
2022-12-17T12:23:41.702Z,102019.69
2022-12-17T12:26:32.489Z,102020.47
2022-12-17T12:29:26.887Z,102020.25
2022-12-17T12:32:19.505Z,102022.16
2022-12-17T12:35:05.388Z,102019.00
2022-12-17T12:37:53.006Z,102012.16
2022-12-17T12:40:59.212Z,102016.59
2022-12-17T12:43:48.545Z,102017.53
2022-12-17T12:46:38.759Z,102027.53
2022-12-17T12:49:35.072Z,102014.88
2022-12-17T12:52:19.507Z,102013.06
2022-12-17T12:55:13.261Z,102013.94
2022-12-17T12:58:02.153Z,102015.31
2022-12-17T13:00:53.015Z,102016.91
2022-12-17T13:03:46.960Z,102023.84
2022-12-17T13:06:41.576Z,102020.41
2022-12-17T13:09:22.442Z,102022.13
2022-12-17T13:11:52.085Z,102022.25
2022-12-17T13:14:23.760Z,102019.88
2022-12-17T13:16:55.642Z,102023.31
2022-12-17T13:19:36.589Z,102024.38
2022-12-17T13:22:33.482Z,102028.09
2022-12-17T13:25:17.280Z,102030.66
2022-12-17T13:27:45.474Z,102024.78
2022-12-17T13:30:22.371Z,102030.78
2022-12-17T13:33:02.855Z,102026.50
2022-12-17T13:35:38.568Z,102031.16
2022-12-17T13:38:17.875Z,102032.88
2022-12-17T13:40:50.730Z,102037.47
2022-12-17T13:43:21.750Z,102041.66
2022-12-17T13:45:51.662Z,102042.72
2022-12-17T13:48:25.116Z,102042.16
2022-12-17T13:50:58.019Z,102050.91
2022-12-17T13:53:28.150Z,102043.97
2022-12-17T13:55:58.357Z,102049.22
2022-12-17T13:58:28.747Z,102049.72
2022-12-17T14:01:15.671Z,102048.84
2022-12-17T14:04:05.660Z,102055.25
2022-12-17T14:06:37.518Z,102058.53
2022-12-17T14:09:08.363Z,102062.16
2022-12-17T14:11:56.342Z,102065.88
2022-12-17T14:14:30.004Z,102061.84
2022-12-17T14:16:57.874Z,102062.84
2022-12-17T14:19:26.435Z,102069.06
2022-12-17T14:21:54.945Z,102070.84
2022-12-17T14:24:29.055Z,102067.22
2022-12-17T14:26:58.884Z,102071.41
2022-12-17T14:29:28.801Z,102065.44
2022-12-17T14:31:58.237Z,102078.84
2022-12-17T14:34:26.347Z,102075.53
2022-12-17T14:36:57.650Z,102076.28
2022-12-17T14:39:28.945Z,102070.94
2022-12-17T14:42:16.779Z,102064.56
2022-12-17T14:44:55.845Z,102076.28
2022-12-17T14:47:25.823Z,102085.34
2022-12-17T14:49:57.562Z,102079.91
2022-12-17T14:52:35.492Z,102083.53
2022-12-17T14:55:27.296Z,102088.88
2022-12-17T14:58:09.291Z,102089.94
2022-12-17T15:00:39.076Z,102084.88
2022-12-17T15:03:07.024Z,102076.16
2022-12-17T15:05:36.223Z,102084.22
2022-12-17T15:08:05.476Z,102087.75
2022-12-17T15:10:34.536Z,102080.91
2022-12-17T15:13:02.416Z,102074.91
2022-12-17T15:15:30.106Z,102081.03
2022-12-17T15:17:57.792Z,102086.34
2022-12-17T15:20:25.422Z,102085.25
2022-12-17T15:22:53.140Z,102084.31
2022-12-17T15:25:21.141Z,102088.91
2022-12-17T15:27:50.343Z,102094.41
2022-12-17T15:30:19.060Z,102093.69
2022-12-17T15:32:47.039Z,102094.81
2022-12-17T15:35:15.403Z,102096.72
2022-12-17T15:37:43.063Z,102096.81
2022-12-17T15:40:11.961Z,102104.34
2022-12-17T15:42:59.181Z,102099.59
2022-12-17T15:45:33.021Z,102101.94
2022-12-17T15:48:00.793Z,102095.97
2022-12-17T15:50:30.073Z,102099.78
2022-12-17T15:52:57.771Z,102104.56
2022-12-17T15:55:25.447Z,102100.34
2022-12-17T15:57:53.118Z,102099.50
2022-12-17T16:00:20.836Z,102105.69
2022-12-17T16:02:50.165Z,102112.94
2022-12-17T16:05:19.332Z,102116.25
2022-12-17T16:07:47.388Z,102110.16
2022-12-17T16:10:15.684Z,102108.34
2022-12-17T16:12:43.719Z,102108.28
2022-12-17T16:15:13.432Z,102113.03
2022-12-17T16:17:41.121Z,102113.03
2022-12-17T16:20:11.574Z,102115.03
2022-12-17T16:22:39.303Z,102116.84
2022-12-17T16:25:07.576Z,102119.78
2022-12-17T16:27:35.313Z,102117.47
2022-12-17T16:30:04.221Z,102120.06
2022-12-17T16:32:36.682Z,102127.28
2022-12-17T16:35:05.773Z,102124.72
2022-12-17T16:37:34.822Z,102125.41
2022-12-17T16:40:02.623Z,102127.19
2022-12-17T16:42:30.605Z,102125.78
2022-12-17T16:44:58.279Z,102133.88
2022-12-17T16:47:26.160Z,102130.91
2022-12-17T16:49:53.837Z,102133.41
2022-12-17T16:52:21.537Z,102133.47
2022-12-17T16:54:50.640Z,102131.19
2022-12-17T16:57:18.457Z,102135.59
2022-12-17T16:59:46.413Z,102149.16
2022-12-17T17:02:16.197Z,102147.56
2022-12-17T17:04:44.112Z,102145.47
2022-12-17T17:07:11.891Z,102142.03
2022-12-17T17:09:40.127Z,102145.09
2022-12-17T17:12:11.399Z,102145.47
2022-12-17T17:14:40.209Z,102151.63
2022-12-17T17:17:08.186Z,102151.16
2022-12-17T17:19:36.000Z,102165.72
2022-12-17T17:22:03.738Z,102162.38
2022-12-17T17:24:31.462Z,102164.28
2022-12-17T17:26:59.542Z,102168.94
2022-12-17T17:29:28.705Z,102160.84
2022-12-17T17:32:13.533Z,102163.88
2022-12-17T17:34:42.063Z,102169.50
2022-12-17T17:37:10.097Z,102165.03
2022-12-17T17:39:38.210Z,102169.31
2022-12-17T17:42:06.486Z,102178.16
2022-12-17T17:44:35.835Z,102171.22
2022-12-17T17:47:03.631Z,102176.13
2022-12-17T17:49:31.741Z,102171.09
2022-12-17T17:52:09.428Z,102176.88
2022-12-17T17:54:38.152Z,102185.53
2022-12-17T17:57:05.985Z,102184.59
2022-12-17T17:59:35.072Z,102188.44
2022-12-17T18:02:03.881Z,102186.81
2022-12-17T18:04:32.799Z,102191.41
2022-12-17T18:09:48.135Z,102196.75
2022-12-17T18:12:33.850Z,102199.31
2022-12-17T18:15:14.133Z,102197.09
2022-12-17T18:17:43.115Z,102194.03
2022-12-17T18:20:11.866Z,102196.31
2022-12-17T18:22:39.600Z,102201.13
2022-12-17T18:25:07.527Z,102202.44
2022-12-17T18:27:35.254Z,102208.81
2022-12-17T18:30:05.300Z,102210.34
2022-12-17T18:32:32.975Z,102214.13
2022-12-17T18:35:00.733Z,102215.47
2022-12-17T18:37:28.544Z,102211.03
2022-12-17T18:39:56.247Z,102213.41
2022-12-17T18:42:41.782Z,102220.47
2022-12-17T18:45:11.042Z,102225.19
2022-12-17T18:47:38.853Z,102230.59
2022-12-17T18:50:07.731Z,102233.25
2022-12-17T18:52:35.511Z,102236.41
2022-12-17T18:55:03.451Z,102228.44
2022-12-17T18:57:31.128Z,102235.81
2022-12-17T18:59:58.788Z,102238.47
2022-12-17T19:02:28.364Z,102243.63
2022-12-17T19:04:56.059Z,102245.31
2022-12-17T19:07:23.743Z,102231.63
2022-12-17T19:09:51.573Z,102238.56
2022-12-17T19:12:19.248Z,102246.97
2022-12-17T19:14:47.149Z,102250.56
2022-12-17T19:17:14.860Z,102248.78
2022-12-17T19:19:43.890Z,102251.53
2022-12-17T19:22:11.693Z,102242.44
2022-12-17T19:24:39.377Z,102249.81
2022-12-17T19:27:07.266Z,102247.75
2022-12-17T19:29:35.074Z,102247.84
2022-12-17T19:32:03.685Z,102243.47
2022-12-17T19:34:32.331Z,102242.44
2022-12-17T19:37:01.388Z,102244.41
2022-12-17T19:39:29.158Z,102249.81
2022-12-17T19:41:56.915Z,102250.41
2022-12-17T19:44:25.079Z,102252.28
2022-12-17T19:46:52.868Z,102249.53
2022-12-17T19:49:20.609Z,102252.47
2022-12-17T19:51:48.461Z,102257.00
2022-12-17T19:54:17.502Z,102257.78
2022-12-17T19:56:46.073Z,102255.44
2022-12-17T19:59:14.730Z,102257.94
2022-12-17T20:01:44.708Z,102255.22
2022-12-17T20:04:14.347Z,102259.66
2022-12-17T20:06:42.033Z,102258.72
2022-12-17T20:09:10.053Z,102263.44
2022-12-17T20:11:39.438Z,102255.38
2022-12-17T20:14:11.606Z,102255.44
2022-12-17T20:16:41.569Z,102259.75
2022-12-17T20:19:12.193Z,102263.75
2022-12-17T20:21:39.987Z,102265.31
2022-12-17T20:24:08.382Z,102266.84
2022-12-17T20:26:36.693Z,102267.25
2022-12-17T20:29:09.430Z,102265.22
2022-12-17T20:31:37.929Z,102266.06
2022-12-17T20:34:09.744Z,102268.03
2022-12-17T20:36:39.583Z,102265.38
2022-12-17T20:39:07.831Z,102271.97
2022-12-17T20:41:36.458Z,102278.28
2022-12-17T20:44:07.208Z,102278.38
2022-12-17T20:46:37.022Z,102284.72
2022-12-17T20:49:06.461Z,102290.97
2022-12-17T20:51:35.188Z,102288.47
2022-12-17T20:54:05.137Z,102295.56
2022-12-17T20:56:34.936Z,102297.47
2022-12-17T20:59:04.778Z,102302.63
2022-12-17T21:01:37.918Z,102300.88
2022-12-17T21:04:07.831Z,102307.75
2022-12-17T21:06:38.712Z,102309.56
2022-12-17T21:09:07.606Z,102298.75
2022-12-17T21:11:39.714Z,102309.25
2022-12-17T21:14:10.885Z,102306.50
2022-12-17T21:16:41.288Z,102316.81
2022-12-17T21:19:10.431Z,102307.75
2022-12-17T21:21:40.408Z,102312.94
2022-12-17T21:24:10.556Z,102317.31
2022-12-17T21:26:40.019Z,102312.72
2022-12-17T21:29:09.596Z,102310.59
2022-12-17T21:31:41.356Z,102319.97
2022-12-17T21:34:12.817Z,102326.97
2022-12-17T21:36:41.762Z,102319.50
2022-12-17T21:39:13.701Z,102323.25
2022-12-17T21:42:07.559Z,102322.63
2022-12-17T21:44:37.614Z,102326.41
2022-12-17T21:47:07.966Z,102336.38
2022-12-17T21:49:45.097Z,102333.44
2022-12-17T21:52:13.137Z,102332.25
2022-12-17T21:54:41.784Z,102343.50
2022-12-17T21:57:09.739Z,102337.25
2022-12-17T21:59:37.741Z,102342.31
2022-12-17T22:02:07.818Z,102341.69
2022-12-17T22:04:35.788Z,102341.56
2022-12-17T22:07:10.322Z,102333.16
2022-12-17T22:09:54.980Z,102340.38
2022-12-17T22:12:50.273Z,102344.03
2022-12-17T22:15:18.972Z,102349.97
2022-12-17T22:17:49.502Z,102351.53
2022-12-17T22:20:18.299Z,102348.44
2022-12-17T22:22:47.365Z,102355.47
2022-12-17T22:25:17.499Z,102362.47
2022-12-17T22:27:50.283Z,102359.81
2022-12-17T22:30:43.195Z,102360.78
2022-12-17T22:33:24.062Z,102355.31
2022-12-17T22:37:40.178Z,102350.84
2022-12-17T22:42:29.001Z,102358.34
2022-12-17T22:44:29.477Z,102356.31
2022-12-17T22:45:04.051Z,102364.97
2022-12-17T22:47:36.547Z,102362.75
2022-12-17T22:50:08.297Z,102366.66
2022-12-17T22:52:37.416Z,102357.44
2022-12-17T22:55:07.493Z,102362.84
2022-12-17T22:57:38.256Z,102363.94
2022-12-17T23:00:14.396Z,102354.16
2022-12-17T23:02:42.671Z,102358.06
2022-12-17T23:05:12.064Z,102360.25
2022-12-17T23:07:40.490Z,102357.41
2022-12-17T23:10:08.989Z,102352.97
2022-12-17T23:12:52.590Z,102360.28
2022-12-17T23:15:23.280Z,102355.38
2022-12-17T23:17:51.468Z,102353.19
2022-12-17T23:20:21.433Z,102352.28
2022-12-17T23:22:49.258Z,102349.91
2022-12-17T23:25:17.329Z,102347.91
2022-12-17T23:27:46.980Z,102352.41
2022-12-17T23:30:16.936Z,102353.50
2022-12-17T23:32:45.433Z,102359.97
2022-12-17T23:35:14.241Z,102361.81
2022-12-17T23:37:43.819Z,102364.69
2022-12-17T23:40:13.388Z,102359.13
2022-12-17T23:42:41.089Z,102358.75
2022-12-17T23:45:11.317Z,102359.84
2022-12-17T23:47:39.690Z,102360.63
2022-12-17T23:50:09.636Z,102353.41
2022-12-17T23:52:38.945Z,102355.06
2022-12-17T23:55:09.021Z,102358.19
2022-12-17T23:57:36.676Z,102362.50
